createdAt,value
2018-04-17T00:00:51.165Z,5.00
2018-04-17T00:03:17.904Z,6.50
2018-04-17T00:05:44.627Z,5.80
2018-04-17T00:08:11.343Z,5.10
2018-04-17T00:10:38.800Z,6.17
2018-04-17T00:13:05.503Z,6.20
2018-04-17T00:15:32.261Z,5.47
2018-04-17T00:17:58.973Z,6.30
2018-04-17T00:20:25.689Z,5.30
2018-04-17T00:22:52.396Z,5.93
2018-04-17T00:25:19.133Z,6.20
2018-04-17T00:27:45.832Z,6.00
2018-04-17T00:30:12.555Z,6.10
2018-04-17T00:32:39.260Z,5.33
2018-04-17T00:35:05.999Z,6.23
2018-04-17T00:37:32.709Z,7.03
2018-04-17T00:39:59.420Z,6.83
2018-04-17T00:42:26.143Z,6.10
2018-04-17T00:44:52.864Z,7.17
2018-04-17T00:47:19.567Z,5.87
2018-04-17T00:49:46.262Z,5.83
2018-04-17T00:52:12.988Z,5.07
2018-04-17T00:54:39.727Z,5.80
2018-04-17T00:57:06.433Z,5.47
2018-04-17T00:59:33.143Z,6.30
2018-04-17T01:01:59.893Z,6.03
2018-04-17T01:04:26.591Z,5.10
2018-04-17T01:06:53.303Z,5.73
2018-04-17T01:09:20.004Z,5.80
2018-04-17T01:11:46.714Z,5.33
2018-04-17T01:14:13.428Z,5.23
2018-04-17T01:16:40.147Z,5.97
2018-04-17T01:19:06.858Z,7.17
2018-04-17T01:21:33.581Z,6.60
2018-04-17T01:24:00.321Z,6.30
2018-04-17T01:26:27.038Z,8.10
2018-04-17T01:28:53.760Z,6.20
2018-04-17T01:31:20.525Z,6.73
2018-04-17T01:33:47.233Z,5.50
2018-04-17T01:36:13.947Z,6.23
2018-04-17T01:38:40.678Z,6.37
2018-04-17T01:41:07.405Z,6.43
2018-04-17T01:43:34.161Z,6.50
2018-04-17T01:46:00.886Z,6.77
2018-04-17T01:48:27.597Z,6.43
2018-04-17T01:50:54.309Z,7.40
2018-04-17T01:53:21.071Z,6.33
2018-04-17T01:55:47.824Z,6.80
2018-04-17T01:58:14.547Z,5.90
2018-04-17T02:00:41.256Z,6.67
2018-04-17T02:03:07.976Z,5.87
2018-04-17T02:05:34.700Z,6.13
2018-04-17T02:08:01.423Z,5.93
2018-04-17T02:10:28.136Z,6.20
2018-04-17T02:12:54.877Z,5.47
2018-04-17T02:15:21.590Z,6.00
2018-04-17T02:17:48.299Z,5.60
2018-04-17T02:20:15.052Z,5.00
2018-04-17T02:22:41.774Z,4.93
2018-04-17T02:25:08.498Z,4.47
2018-04-17T02:27:35.229Z,4.40
2018-04-17T02:30:01.970Z,4.40
2018-04-17T02:32:28.705Z,4.90
2018-04-17T02:34:55.417Z,4.43
2018-04-17T02:37:22.141Z,5.00
2018-04-17T02:39:48.878Z,4.60
2018-04-17T02:42:15.630Z,4.67
2018-04-17T02:44:42.370Z,5.17
2018-04-17T02:47:09.105Z,4.73
2018-04-17T02:49:35.853Z,5.10
2018-04-17T02:52:02.598Z,4.77
2018-04-17T02:54:29.331Z,5.80
2018-04-17T02:56:56.054Z,4.30
2018-04-17T02:59:22.779Z,5.23
2018-04-17T03:01:49.505Z,5.30
2018-04-17T03:04:16.232Z,5.73
2018-04-17T03:06:42.959Z,6.43
2018-04-17T03:09:09.678Z,5.00
2018-04-17T03:11:36.388Z,5.80
2018-04-17T03:14:03.112Z,4.60
2018-04-17T03:16:29.856Z,5.90
2018-04-17T03:18:56.577Z,5.20
2018-04-17T03:21:23.311Z,4.60
2018-04-17T03:23:50.044Z,4.63
2018-04-17T03:26:16.768Z,4.93
2018-04-17T03:28:43.529Z,5.13
2018-04-17T03:31:10.297Z,4.47
2018-04-17T03:33:37.034Z,4.60
2018-04-17T03:36:03.757Z,4.70
2018-04-17T03:38:30.478Z,4.93
2018-04-17T03:40:57.196Z,4.90
2018-04-17T03:43:23.906Z,4.57
2018-04-17T03:45:50.609Z,5.20
2018-04-17T03:48:17.366Z,4.47
2018-04-17T03:50:44.081Z,5.47
2018-04-17T03:53:10.807Z,5.20
2018-04-17T03:55:37.532Z,4.93
2018-04-17T03:58:04.272Z,5.23
2018-04-17T04:00:31.031Z,4.50
2018-04-17T04:02:57.802Z,4.67
2018-04-17T04:05:24.511Z,4.53
2018-04-17T04:07:51.223Z,5.17
2018-04-17T04:10:17.929Z,4.83
2018-04-17T04:12:44.646Z,4.73
2018-04-17T04:15:11.378Z,4.60
2018-04-17T04:17:44.051Z,5.10
2018-04-17T04:20:16.588Z,4.50
2018-04-17T04:22:49.149Z,4.67
2018-04-17T04:25:21.825Z,4.73
2018-04-17T04:27:48.595Z,5.13
2018-04-17T04:30:15.364Z,4.87
2018-04-17T04:32:42.105Z,4.83
2018-04-17T04:35:08.818Z,5.10
2018-04-17T04:37:35.537Z,4.47
2018-04-17T04:40:02.240Z,4.73
2018-04-17T04:42:28.971Z,5.10
2018-04-17T04:44:55.694Z,4.80
2018-04-17T04:47:22.422Z,4.60
2018-04-17T04:49:49.159Z,4.87
2018-04-17T04:52:15.881Z,4.97
2018-04-17T04:54:42.609Z,4.90
2018-04-17T04:57:09.351Z,4.60
2018-04-17T04:59:36.076Z,5.37
2018-04-17T05:02:02.834Z,5.50
2018-04-17T05:04:29.561Z,4.90
2018-04-17T05:06:56.281Z,5.10
2018-04-17T05:09:23.016Z,4.80
2018-04-17T05:11:49.738Z,4.47
2018-04-17T05:14:16.497Z,4.27
2018-04-17T05:16:43.213Z,4.07
2018-04-17T05:19:09.929Z,4.10
2018-04-17T05:21:36.678Z,4.50
2018-04-17T05:24:03.479Z,3.93
2018-04-17T05:26:30.192Z,4.47
2018-04-17T05:28:56.923Z,4.80
2018-04-17T05:31:23.635Z,4.87
2018-04-17T05:33:50.350Z,4.37
2018-04-17T05:36:17.066Z,4.50
2018-04-17T05:38:43.811Z,4.60
2018-04-17T05:41:10.522Z,4.67
2018-04-17T05:43:37.228Z,4.67
2018-04-17T05:46:03.937Z,4.63
2018-04-17T05:48:30.678Z,5.93
2018-04-17T05:50:57.444Z,4.73
2018-04-17T05:53:24.160Z,5.30
2018-04-17T05:55:50.970Z,5.00
2018-04-17T05:58:17.674Z,5.03
2018-04-17T06:00:44.392Z,5.40
2018-04-17T06:03:11.099Z,5.30
2018-04-17T06:05:37.836Z,5.57
2018-04-17T06:08:04.553Z,5.40
2018-04-17T06:10:31.272Z,5.67
2018-04-17T06:12:58.013Z,5.60
2018-04-17T06:15:24.729Z,5.60
2018-04-17T06:17:51.448Z,7.93
2018-04-17T06:20:18.172Z,10.00
2018-04-17T06:22:44.907Z,10.03
2018-04-17T06:25:11.619Z,11.50
2018-04-17T06:27:38.350Z,11.27
2018-04-17T06:30:05.091Z,12.00
2018-04-17T06:32:31.821Z,12.33
2018-04-17T06:34:58.568Z,11.20
2018-04-17T06:37:25.275Z,10.47
2018-04-17T06:39:51.995Z,11.00
2018-04-17T06:42:18.745Z,11.47
2018-04-17T06:44:45.474Z,11.07
2018-04-17T06:47:12.210Z,12.30
2018-04-17T06:49:38.952Z,11.87
2018-04-17T06:52:05.715Z,11.80
2018-04-17T06:54:32.436Z,11.97
2018-04-17T06:56:59.152Z,12.30
2018-04-17T06:59:25.877Z,12.47
2018-04-17T07:01:52.597Z,13.07
2018-04-17T07:04:19.333Z,12.03
2018-04-17T07:06:46.077Z,12.57
2018-04-17T07:09:12.817Z,10.27
2018-04-17T07:11:39.621Z,12.43
2018-04-17T07:14:06.303Z,10.37
2018-04-17T07:16:33.042Z,9.93
2018-04-17T07:18:59.756Z,9.40
2018-04-17T07:21:26.474Z,8.53
2018-04-17T07:23:53.193Z,7.97
2018-04-17T07:26:19.928Z,8.40
2018-04-17T07:28:46.647Z,7.00
2018-04-17T07:31:13.375Z,6.30
2018-04-17T07:33:40.098Z,6.50
2018-04-17T07:36:06.838Z,5.73
2018-04-17T07:38:33.572Z,5.83
2018-04-17T07:41:00.327Z,5.43
2018-04-17T07:43:27.057Z,5.07
2018-04-17T07:45:53.773Z,4.93
2018-04-17T07:48:26.355Z,4.80
2018-04-17T07:50:53.089Z,5.30
2018-04-17T07:53:19.825Z,4.27
2018-04-17T07:55:46.552Z,4.67
2018-04-17T07:58:13.293Z,4.10
2018-04-17T08:00:40.016Z,4.43
2018-04-17T08:03:06.751Z,3.97
2018-04-17T08:05:33.464Z,4.67
2018-04-17T08:08:00.289Z,4.13
2018-04-17T08:10:27.007Z,3.80
2018-04-17T08:12:53.736Z,4.40
2018-04-17T08:15:20.501Z,4.20
2018-04-17T08:17:47.231Z,4.03
2018-04-17T08:20:13.962Z,4.10
2018-04-17T08:22:40.682Z,4.60
2018-04-17T08:25:07.408Z,4.70
2018-04-17T08:27:34.144Z,4.20
2018-04-17T08:30:00.865Z,4.57
2018-04-17T08:32:27.595Z,2.93
2018-04-17T08:34:54.334Z,4.07
2018-04-17T08:37:21.077Z,3.20
2018-04-17T08:39:47.850Z,2.60
2018-04-17T08:42:14.631Z,3.07
2018-04-17T08:44:41.356Z,2.47
2018-04-17T08:47:08.093Z,3.17
2018-04-17T08:49:34.819Z,2.90
2018-04-17T08:52:01.554Z,3.00
2018-04-17T08:54:28.355Z,2.63
2018-04-17T08:56:55.053Z,3.23
2018-04-17T08:59:21.810Z,3.10
2018-04-17T09:01:48.584Z,3.20
2018-04-17T09:04:15.309Z,2.90
2018-04-17T09:06:42.056Z,2.90
2018-04-17T09:09:08.789Z,3.00
2018-04-17T09:11:35.520Z,3.13
2018-04-17T09:14:02.230Z,2.63
2018-04-17T09:16:29.117Z,3.20
2018-04-17T09:18:55.832Z,2.53
2018-04-17T09:21:22.579Z,3.00
2018-04-17T09:23:49.353Z,2.70
2018-04-17T09:26:16.077Z,3.40
2018-04-17T09:28:42.927Z,2.90
2018-04-17T09:31:09.647Z,2.67
2018-04-17T09:33:36.370Z,2.40
2018-04-17T09:36:03.173Z,2.90
2018-04-17T09:38:29.944Z,2.50
2018-04-17T09:40:57.010Z,2.90
2018-04-17T09:43:23.766Z,2.40
2018-04-17T09:45:50.523Z,2.47
2018-04-17T09:48:17.242Z,2.27
2018-04-17T09:50:43.962Z,2.63
2018-04-17T09:53:10.673Z,3.20
2018-04-17T09:55:37.422Z,2.80
2018-04-17T09:58:05.115Z,2.80
2018-04-17T10:00:37.559Z,2.33
2018-04-17T10:03:04.333Z,2.30
2018-04-17T10:05:31.086Z,3.17
2018-04-17T10:07:57.810Z,2.90
2018-04-17T10:10:24.537Z,2.53
2018-04-17T10:12:51.270Z,3.07
2018-04-17T10:15:18.018Z,2.87
2018-04-17T10:17:44.753Z,2.90
2018-04-17T10:20:11.495Z,2.33
2018-04-17T10:22:38.254Z,2.70
2018-04-17T10:25:04.993Z,2.10
2018-04-17T10:27:31.767Z,2.47
2018-04-17T10:29:58.480Z,3.10
2018-04-17T10:32:25.238Z,2.80
2018-04-17T10:34:51.952Z,2.70
2018-04-17T10:37:18.765Z,2.90
2018-04-17T10:39:45.525Z,3.20
2018-04-17T10:42:12.233Z,3.00
2018-04-17T10:44:38.957Z,3.30
2018-04-17T10:47:18.989Z,2.57
2018-04-17T10:50:07.820Z,2.83
2018-04-17T10:52:35.966Z,2.57
2018-04-17T10:55:02.920Z,2.60
2018-04-17T10:57:29.653Z,2.87
2018-04-17T10:59:56.437Z,2.37
2018-04-17T11:02:23.885Z,3.33
2018-04-17T11:04:50.641Z,2.80
2018-04-17T11:07:17.370Z,2.03
2018-04-17T11:09:44.114Z,2.30
2018-04-17T11:12:10.948Z,2.60
2018-04-17T11:14:44.094Z,2.20
2018-04-17T11:17:11.220Z,2.83
2018-04-17T11:19:37.937Z,2.50
2018-04-17T11:22:04.655Z,2.00
2018-04-17T11:24:31.859Z,1.90
2018-04-17T11:26:58.913Z,1.80
2018-04-17T11:29:25.714Z,1.90
2018-04-17T11:31:52.458Z,1.77
2018-04-17T11:34:19.185Z,1.90
2018-04-17T11:36:45.922Z,1.63
2018-04-17T11:39:12.678Z,2.00
2018-04-17T11:41:39.529Z,2.10
2018-04-17T11:44:06.349Z,1.87
2018-04-17T11:46:33.064Z,2.17
2018-04-17T11:48:59.805Z,1.57
2018-04-17T11:51:26.526Z,2.30
2018-04-17T11:53:53.299Z,1.67
2018-04-17T11:56:20.037Z,1.90
2018-04-17T11:58:59.239Z,1.37
2018-04-17T12:01:26.202Z,1.80
2018-04-17T12:03:52.948Z,1.80
2018-04-17T12:06:19.704Z,1.90
2018-04-17T12:08:46.418Z,1.40
2018-04-17T12:11:13.177Z,1.50
2018-04-17T12:13:39.949Z,1.30
2018-04-17T12:16:06.679Z,1.30
2018-04-17T12:18:33.429Z,1.60
2018-04-17T12:21:00.137Z,1.47
2018-04-17T12:23:26.850Z,1.90
2018-04-17T12:25:53.609Z,1.20
2018-04-17T12:28:20.319Z,1.73
2018-04-17T12:30:47.033Z,1.70
2018-04-17T12:33:13.742Z,1.33
2018-04-17T12:35:40.456Z,1.60
2018-04-17T12:38:07.176Z,1.40
2018-04-17T12:40:33.894Z,1.43
2018-04-17T12:43:00.604Z,1.60
2018-04-17T12:45:27.319Z,1.57
2018-04-17T12:47:54.050Z,1.30
2018-04-17T12:50:20.761Z,1.27
2018-04-17T12:52:47.502Z,1.67
2018-04-17T12:55:14.236Z,1.90
2018-04-17T12:57:40.964Z,1.50
2018-04-17T13:00:07.688Z,1.57
2018-04-17T13:02:34.413Z,1.40
2018-04-17T13:05:01.126Z,1.70
2018-04-17T13:07:27.855Z,1.40
2018-04-17T13:09:54.708Z,1.40
2018-04-17T13:12:21.425Z,1.70
2018-04-17T13:14:48.140Z,3.30
2018-04-17T13:17:14.866Z,2.27
2018-04-17T13:19:41.612Z,1.87
2018-04-17T13:22:08.412Z,1.50
2018-04-17T13:24:35.172Z,1.40
2018-04-17T13:27:01.899Z,1.80
2018-04-17T13:29:28.616Z,1.47
2018-04-17T13:31:55.371Z,1.60
2018-04-17T13:34:22.101Z,1.67
2018-04-17T13:36:48.867Z,1.47
2018-04-17T13:39:15.647Z,1.97
2018-04-17T13:41:42.376Z,1.53
2018-04-17T13:44:09.109Z,1.40
2018-04-17T13:46:35.829Z,2.40
2018-04-17T13:49:02.566Z,1.97
2018-04-17T13:51:29.276Z,2.03
2018-04-17T13:53:55.993Z,1.70
2018-04-17T13:56:22.698Z,1.50
2018-04-17T13:58:49.432Z,1.93
2018-04-17T14:01:16.149Z,1.53
2018-04-17T14:03:42.869Z,1.40
2018-04-17T14:06:09.640Z,2.40
2018-04-17T14:08:36.366Z,2.40
2018-04-17T14:11:03.148Z,1.63
2018-04-17T14:13:29.903Z,1.17
2018-04-17T14:15:56.649Z,1.60
2018-04-17T14:18:23.391Z,1.63
2018-04-17T14:20:50.109Z,1.40
2018-04-17T14:23:16.835Z,1.10
2018-04-17T14:25:43.576Z,1.90
2018-04-17T14:28:10.324Z,1.40
2018-04-17T14:30:37.067Z,1.30
2018-04-17T14:33:03.792Z,1.60
2018-04-17T14:35:30.499Z,1.70
2018-04-17T14:37:57.240Z,1.40
2018-04-17T14:40:23.965Z,1.50
2018-04-17T14:42:50.684Z,1.63
2018-04-17T14:45:17.413Z,1.50
2018-04-17T14:47:44.140Z,1.60
2018-04-17T14:50:10.853Z,1.87
2018-04-17T14:52:37.583Z,1.50
2018-04-17T14:55:04.309Z,1.53
2018-04-17T14:57:31.029Z,1.90
2018-04-17T14:59:57.757Z,1.70
2018-04-17T15:02:24.478Z,1.90
2018-04-17T15:04:51.185Z,1.57
2018-04-17T15:07:17.905Z,2.20
2018-04-17T15:09:44.617Z,1.90
2018-04-17T15:12:11.334Z,2.10
2018-04-17T15:14:38.051Z,2.10
2018-04-17T15:17:04.762Z,2.10
2018-04-17T15:19:31.500Z,2.77
2018-04-17T15:21:58.209Z,2.13
2018-04-17T15:24:24.934Z,2.07
2018-04-17T15:26:51.661Z,2.53
2018-04-17T15:29:18.381Z,2.00
2018-04-17T15:31:45.098Z,2.00
2018-04-17T15:34:11.810Z,1.50
2018-04-17T15:36:38.543Z,2.10
2018-04-17T15:39:06.100Z,1.90
2018-04-17T15:41:32.845Z,2.10
2018-04-17T15:43:59.589Z,2.20
2018-04-17T15:46:26.325Z,2.20
2018-04-17T15:48:53.082Z,2.30
2018-04-17T15:51:19.825Z,2.30
2018-04-17T15:53:46.550Z,2.13
2018-04-17T15:56:13.296Z,2.20
2018-04-17T15:58:40.022Z,2.30
2018-04-17T16:01:06.845Z,2.43
2018-04-17T16:03:33.752Z,2.27
2018-04-17T16:06:00.480Z,2.20
2018-04-17T16:08:27.296Z,2.13
2018-04-17T16:10:54.012Z,2.40
2018-04-17T16:13:20.749Z,2.47
2018-04-17T16:15:47.527Z,2.10
2018-04-17T16:18:14.241Z,2.47
2018-04-17T16:20:40.968Z,2.50
2018-04-17T16:23:07.777Z,2.40
2018-04-17T16:25:34.509Z,2.73
2018-04-17T16:28:01.215Z,2.50
2018-04-17T16:30:27.982Z,2.80
2018-04-17T16:32:54.722Z,2.30
2018-04-17T16:35:21.445Z,2.50
2018-04-17T16:37:48.202Z,2.50
2018-04-17T16:40:14.939Z,2.70
2018-04-17T16:42:41.667Z,3.10
2018-04-17T16:45:08.418Z,2.80
2018-04-17T16:47:35.157Z,3.13
2018-04-17T16:50:01.873Z,2.97
2018-04-17T16:52:28.585Z,2.90
2018-04-17T16:54:55.335Z,3.13
2018-04-17T16:57:22.096Z,2.67
2018-04-17T16:59:48.801Z,2.67
2018-04-17T17:02:15.517Z,2.80
2018-04-17T17:04:42.256Z,2.93
2018-04-17T17:07:08.977Z,3.27
2018-04-17T17:09:35.700Z,2.90
2018-04-17T17:12:02.417Z,3.77
2018-04-17T17:14:29.176Z,3.30
2018-04-17T17:16:55.947Z,3.50
2018-04-17T17:19:22.789Z,3.17
2018-04-17T17:21:49.533Z,3.50
2018-04-17T17:24:16.340Z,3.47
2018-04-17T17:26:43.082Z,3.97
2018-04-17T17:29:09.836Z,3.77
2018-04-17T17:31:36.582Z,3.30
2018-04-17T17:34:03.319Z,3.70
2018-04-17T17:36:30.086Z,3.10
2018-04-17T17:38:56.834Z,3.53
2018-04-17T17:41:23.606Z,4.07
2018-04-17T17:43:50.381Z,3.30
2018-04-17T17:46:17.165Z,3.40
2018-04-17T17:48:43.959Z,3.67
2018-04-17T17:51:10.729Z,3.37
2018-04-17T17:53:37.478Z,3.60
2018-04-17T17:56:04.227Z,3.93
2018-04-17T17:58:30.954Z,4.37
2018-04-17T18:00:57.721Z,3.70
2018-04-17T18:03:24.441Z,4.20
2018-04-17T18:05:51.181Z,3.90
2018-04-17T18:08:18.074Z,3.87
2018-04-17T18:10:44.813Z,3.93
2018-04-17T18:13:11.544Z,4.10
2018-04-17T18:15:38.334Z,3.87
2018-04-17T18:18:05.093Z,4.00
2018-04-17T18:20:31.828Z,4.23
2018-04-17T18:22:58.581Z,4.67
2018-04-17T18:25:25.454Z,4.50
2018-04-17T18:27:52.203Z,5.40
2018-04-17T18:30:18.929Z,5.43
2018-04-17T18:32:45.836Z,7.33
2018-04-17T18:35:12.577Z,9.70
2018-04-17T18:37:39.300Z,6.93
2018-04-17T18:40:06.062Z,7.70
2018-04-17T18:42:33.001Z,11.50
2018-04-17T18:44:59.881Z,8.83
2018-04-17T18:47:26.698Z,6.50
2018-04-17T18:49:53.548Z,5.00
2018-04-17T18:52:20.282Z,5.40
2018-04-17T18:54:47.032Z,5.23
2018-04-17T18:57:13.776Z,4.97
2018-04-17T18:59:40.534Z,5.23
2018-04-17T19:02:07.338Z,5.40
2018-04-17T19:04:34.128Z,4.80
2018-04-17T19:07:00.935Z,5.33
2018-04-17T19:09:27.677Z,5.83
2018-04-17T19:11:54.408Z,5.17
2018-04-17T19:14:21.156Z,5.33
2018-04-17T19:16:47.958Z,5.13
2018-04-17T19:19:14.747Z,5.60
2018-04-17T19:21:41.494Z,5.10
2018-04-17T19:24:08.473Z,5.70
2018-04-17T19:26:35.414Z,5.17
2018-04-17T19:29:02.215Z,5.50
2018-04-17T19:31:29.073Z,5.40
2018-04-17T19:33:56.047Z,5.40
2018-04-17T19:36:22.801Z,5.57
2018-04-17T19:38:49.577Z,5.57
2018-04-17T19:41:20.582Z,5.83
2018-04-17T19:43:47.341Z,5.67
2018-04-17T19:46:14.108Z,5.60
2018-04-17T19:48:40.833Z,6.03
2018-04-17T19:51:07.587Z,5.53
2018-04-17T19:53:34.359Z,6.10
2018-04-17T19:56:01.253Z,6.70
2018-04-17T19:58:28.072Z,6.70
2018-04-17T20:00:54.834Z,6.97
2018-04-17T20:03:21.570Z,6.90
2018-04-17T20:05:48.318Z,6.87
2018-04-17T20:08:15.045Z,6.50
2018-04-17T20:10:41.797Z,6.17
2018-04-17T20:13:08.534Z,7.23
2018-04-17T20:15:35.290Z,7.07
2018-04-17T20:18:02.011Z,7.23
2018-04-17T20:20:28.758Z,7.23
2018-04-17T20:22:55.505Z,6.73
2018-04-17T20:25:22.298Z,6.87
2018-04-17T20:27:49.053Z,7.13
2018-04-17T20:30:15.775Z,7.47
2018-04-17T20:32:42.501Z,6.93
2018-04-17T20:35:09.210Z,6.70
2018-04-17T20:37:35.962Z,7.90
2018-04-17T20:40:02.708Z,7.23
2018-04-17T20:42:29.421Z,6.80
2018-04-17T20:44:56.213Z,7.87
2018-04-17T20:47:22.932Z,7.90
2018-04-17T20:49:49.673Z,7.90
2018-04-17T20:52:16.433Z,7.80
2018-04-17T20:54:43.184Z,8.43
2018-04-17T20:57:09.955Z,7.57
2018-04-17T20:59:36.672Z,7.80
2018-04-17T21:02:03.412Z,7.63
2018-04-17T21:04:30.196Z,8.33
2018-04-17T21:06:56.945Z,7.60
2018-04-17T21:09:23.672Z,7.03
2018-04-17T21:11:50.431Z,7.80
2018-04-17T21:14:17.167Z,7.67
2018-04-17T21:16:43.935Z,7.20
2018-04-17T21:19:10.650Z,8.00
2018-04-17T21:21:37.421Z,7.63
2018-04-17T21:24:04.209Z,9.27
2018-04-17T21:26:30.971Z,7.60
2018-04-17T21:28:57.697Z,7.40
2018-04-17T21:31:24.427Z,8.47
2018-04-17T21:33:51.153Z,7.40
2018-04-17T21:36:17.884Z,7.57
2018-04-17T21:38:44.605Z,8.20
2018-04-17T21:41:11.384Z,7.63
2018-04-17T21:43:38.124Z,8.00
2018-04-17T21:46:04.858Z,8.40
2018-04-17T21:48:31.596Z,8.07
2018-04-17T21:50:58.310Z,7.57
2018-04-17T21:53:25.033Z,8.17
2018-04-17T21:55:51.769Z,7.40
2018-04-17T21:58:18.505Z,8.00
2018-04-17T22:00:45.236Z,7.47
2018-04-17T22:03:11.937Z,8.27
2018-04-17T22:05:38.648Z,7.67
2018-04-17T22:08:05.369Z,7.70
2018-04-17T22:10:32.168Z,7.43
2018-04-17T22:12:58.865Z,8.67
2018-04-17T22:15:25.602Z,8.20
2018-04-17T22:17:52.358Z,8.00
2018-04-17T22:20:19.105Z,7.87
2018-04-17T22:22:45.868Z,7.33
2018-04-17T22:25:12.704Z,8.03
2018-04-17T22:27:39.422Z,7.40
2018-04-17T22:30:06.140Z,8.43
2018-04-17T22:32:32.890Z,8.60
2018-04-17T22:34:59.610Z,7.60
2018-04-17T22:37:26.377Z,8.70
2018-04-17T22:39:53.141Z,8.33
2018-04-17T22:42:19.885Z,7.77
2018-04-17T22:44:46.645Z,8.43
2018-04-17T22:47:13.413Z,7.80
2018-04-17T22:49:40.178Z,7.83
2018-04-17T22:52:06.944Z,7.90
2018-04-17T22:54:33.764Z,7.10
2018-04-17T22:57:00.521Z,7.87
2018-04-17T22:59:27.434Z,9.10
2018-04-17T23:01:54.179Z,8.17
2018-04-17T23:04:20.915Z,8.03
2018-04-17T23:06:47.679Z,7.33
2018-04-17T23:09:14.389Z,7.47
2018-04-17T23:11:41.106Z,8.13
2018-04-17T23:14:07.829Z,7.50
2018-04-17T23:16:34.586Z,7.43
2018-04-17T23:19:02.278Z,7.50
2018-04-17T23:21:28.998Z,8.30
2018-04-17T23:23:55.725Z,8.30
2018-04-17T23:26:22.440Z,7.67
2018-04-17T23:28:49.150Z,8.90
2018-04-17T23:31:15.866Z,8.73
2018-04-17T23:33:42.602Z,8.03
2018-04-17T23:36:09.336Z,9.33
2018-04-17T23:38:36.090Z,8.20
2018-04-17T23:41:02.840Z,9.50
2018-04-17T23:43:29.593Z,8.50
2018-04-17T23:45:56.316Z,8.90
2018-04-17T23:48:23.058Z,7.17
2018-04-17T23:50:49.777Z,8.70
2018-04-17T23:53:16.496Z,8.70
2018-04-17T23:55:43.221Z,7.87
2018-04-17T23:58:09.949Z,8.00
